Meteo Giornale » Osservazioni meteo Brasile » Sao Paulo Aeropor-To

ore: 13:00 - Osservazioni Meteo Sao Paulo Aeropor-To
Lat. 23° 37' S Lon. 46° 39' W Alt. 803 metri s.l.m.

sereno America/Sao_Paulo

21 °C

Sereno

Temp. 24 Ore

11 °C

21 °C

Nord

5.5 Km/h

Dew point 8 °C

Umidità 43 %

Visibilità  10 Km

Il sole sorge alle ore 06:44

Il sole tramonta alle ore 17:41

Data e Ora Cielo e Fenomeni T °C DP °C Um. % Pres. hPa Vis. km Vento km/h
Oggi h: 13:00 sereno Sereno 21 8 43 1027 10 N 5.5
Oggi h: 12:00 sereno Sereno 20 9 49 1028 10 E 7.4
Oggi h: 11:00 sereno Sereno 17 10 63 1029 10 E/NE 9.3
Oggi h: 10:00 sereno Sereno 16 10 67 1029 10 E/NE 11.1
Oggi h: 09:00 sereno Sereno 14 10 76 1029 10 E/NE 14.8
Oggi h: 08:00 sereno Sereno 13 10 81 1029 10 E/NE 11.1
Oggi h: 07:00 molto_nuvoloso Molto Nuvoloso 12 10 87 1028 10 E 16.7
Oggi h: 06:00 molto_nuvoloso Molto Nuvoloso 12 10 87 1028 10 E/NE 13
Oggi h: 05:00 molto_nuvoloso Molto Nuvoloso 12 10 87 1027 10 E/NE 14.8
Oggi h: 04:27 molto_nuvoloso Molto Nuvoloso 12 10 87 1027 10 E 13
Oggi h: 04:00 molto_nuvoloso Molto Nuvoloso 12 10 87 1027 10 E 7.4
Oggi h: 03:00 molto_nuvoloso Molto Nuvoloso 12 10 87 1028 10 E 9.3
Oggi h: 02:00 coperto Coperto 12 11 93 1029 10 E/SE 11.1
Oggi h: 01:00 molto_nuvoloso Molto Nuvoloso 12 10 87 1029 10 N 5.5
Oggi h: 00:07 molto_nuvoloso Molto Nuvoloso 12 10 87 1029 10 SE 9.3
Oggi h: 00:00 nuvoloso Nuvoloso 11 10 93 1029 10 S/SE 9.3
Ieri h: 23:02 poco_nuvoloso Poco Nuvoloso 11 9 87 1029 10 N 5.5
Ieri h: 23:00 poco_nuvoloso Poco Nuvoloso 11 9 87 1030 10 SE 7.4
Ieri h: 22:00 poco_nuvoloso Poco Nuvoloso 12 10 87 1029 10 S/SE 13
Ieri h: 21:00 nuvoloso Nuvoloso 12 10 87 1029 10 S/SE 16.7
Ieri h: 20:10 molto_nuvoloso Molto Nuvoloso 13 11 87 1029 8 S/SE 13
Ieri h: 20:00 nuvoloso Nuvoloso 13 11 87 1029 8 S/SE 14.8
Ieri h: 19:00 sereno Sereno 13 11 87 1028 10 S/SE 14.8
Ieri h: 18:00 sereno Sereno 14 11 82 1028 10 S/SE 16.7
Ieri h: 17:00 sereno Sereno 16 11 72 1028 10 S/SE 18.5
Ieri h: 16:00 sereno Sereno 19 11 59 1028 10 S/SE 18.5
Ieri h: 15:00 sereno Sereno 20 10 52 1028 10 SE 14.8